The Sea Ranch, CA (95497)

9:56 AM PDT on August 28, 2014 (GMT -0700)
The Sea Ranch | Change Station
CLOSE
Current Station
Personal Weather Station
Location: Sea Ranch, CA
Elevation: 43 ft
Nearby Weather Stations

Elev 43 ft 38.74 °N, 123.50 °W | Updated 5 minutes ago

Partly Cloudy
Partly Cloudy
60.2 °F
Feels Like 60.2 °F
N
2.0
Wind Variable Wind from NNW
Gusts 5.0 mph

Today
High -- | Low -- °F
--% Chance of Precip.
Yesterday
High -- | Low -- °F
Precip. -- in
6:39 AM 7:49 PM
Waxing Crescent, 9% visible
Pressure 30.05 in
Visibility 10.0 miles
Clouds Clear
Dew Point Not available.
Humidity Not available.
Rainfall 0.00 in
Snow Depth Not available.
UV 1.7 out of 12
Pollen 7.30 out of 12
Air Quality Not available.
Flu Activity Not available.
METAR KUKI 281556Z AUTO 00000KT 10SM CLR 18/11 A3007 RMK AO2 SLP175 T01830111

More Conditions Fewer Conditions

Pressure 30.05 in
Visibility 10.0 miles
Clouds Clear
Dew Point Not available.
Humidity Not available.
Rainfall 0.00 in
Snow Depth Not available.
UV 1.7 out of 12
Pollen 7.30 out of 12
Air Quality Not available.
Flu Activity Not available.
METAR KUKI 281556Z AUTO 00000KT 10SM CLR 18/11 A3007 RMK AO2 SLP175 T01830111

More Conditions Fewer Conditions

10-Day Weather Forecast

Almanac

Astronomy

Aug. 28, 2014 Rise Set
Actual Time 6:39 AM PDT 7:49 PM PDT
Civil Twilight 6:12 AM PDT 8:17 PM PDT
Nautical Twilight 5:39 AM PDT 8:50 PM PDT
Astronomical Twilight 5:04 AM PDT 9:24 PM PDT
Moon 9:34 AM PDT 9:19 PM PDT
Length of Visible Light 14h 05m
Length of Day
13h 10m
Tomorrow will be 2m 22s shorter.
Waxing Crescent, 9% of the Moon is Illuminated
Today
Waxing Crescent
Sep 2
First Quarter
Sep 8
Full
Sep 15
Last Quarter
Sep 24
New

Today's Extremes

State Highs State Lows

Community

WunderPhotos

Upload Photos

1,748,013 photos uploaded!

Nearby

Snow Depth

Station Depth Elevation
CSS Lab 2 in 6900 ft
Forestdale Creek 0 in 8029 ft
Blue Lakes 0 in 8000 ft
Monitor Pass 0 in 8350 ft
Sonora Pass 0 in 8800 ft

Earthquake Activity

City Distance Mag. Time & Date
Napa, California 70 miles 2.6 11:57 AM PDT
2014-08-27
The Geysers, California 35 miles 2.6 7:42 AM PDT
2014-08-27
Napa, California 70 miles 2.5 10:56 AM PDT
2014-08-26
Napa, California 70 miles 3.0 6:45 AM PDT
2014-08-26
Minimum magnitude displayed is 2.5.

Coastal Water Temperatures

Place Temperature
Point Reyes, CA 64.0 °F
Arena Cove, CA 60.1 °F
San Francisco, CA 66.0 °F
Richmond, CA 66.9 °F

Nearby Weather Stations